Nearby METAR Reports

 

CYKA - Kamloops Airport
Distance from station: SSW 65km
Updated: 2024-04-20 05:00
Clear
Clear
 Wind from E
Wind: E 19 km/h
Temperature: 1°C
Wind Chill: -4°C
Dew Point: -5°C
Humidity: 65%
Barometer: 1022.7 hPa
Clouds: Clear
Visibility: 64 km
2024/04/20 12:00 CYKA 201200Z 10010KT 40SM SKC 01/M05 A3020 RMK SLP240
CWSL - Salmon Arm Autob
Distance from station: SE 90km
Updated: 2024-04-20 05:00

 Wind from SW
Wind: SW 4 km/h
Temperature: -1°C
Dew Point: -6°C
Humidity: 69%
2024/04/20 12:00 CWSL 201200Z AUTO 22002KT M01/M06 RMK AO1 SLP248 T10121057 51002
CYIN - Bleibler Ranch
Distance from station: W 103km
Updated: 2024-04-20 05:00
Clear
Clear
 Wind from SE
Wind: SE 6 km/h
Temperature: -9°C
Dew Point: -11°C
Humidity: 86%
Barometer: 1019.3 hPa
Clouds: Clear
Visibility: 14 km
2024/04/20 12:00 CYIN 201200Z AUTO 13003KT 9SM CLR M09/M11 A3010 RMK SLP230
 
CYCP - Blue River (man)
Distance from station: NNE 116km
Updated: 2024-04-19 18:00
NOT Current
Partly cloudy
Partly cloudy
 Wind from ENE
Wind: ENE 13 km/h
Temperature: 11°C
Dew Point: -13°C
Humidity: 17%
Barometer: 1024.7 hPa
Clouds: Partly cloudy
Visibility: 24 km
Cloud details: Partly cloudy 9144 m
2024/04/20 01:00 CYCP 200100Z 07007KT 040V130 15SM SCT300 11/M13 A3026 RMK CI4 LAST STFD OBS/NXT 201300Z SLP277
CYLW - Kelowna Airport
Distance from station: SSE 157km
Updated: 2024-04-20 05:00
Clear
Clear
 Wind from NNW
Wind: NNW 6 km/h
Temperature: -1°C
Dew Point: -8°C
Humidity: 59%
Barometer: 1022.7 hPa
Clouds: Clear
Visibility: 14 km
2024/04/20 12:00 CYLW 201200Z AUTO 33003KT 300V070 9SM CLR M01/M08 A3020 RMK SLP240
CYWL - Williams Lake Airport
Distance from station: NW 164km
Updated: 2024-04-20 05:00
Few Clouds
Few Clouds
 Wind from ESE
Wind: ESE 7 km/h
Temperature: 0°C
Wind Chill: -3°C
Dew Point: -12°C
Humidity: 40%
Barometer: 1020 hPa
Clouds: Few Clouds
Visibility: 24 km
Cloud details: Few Clouds 7010 m
2024/04/20 12:00 CYWL 201200Z 11004KT 15SM FEW230 00/M12 A3012 RMK CI1 CI TR SLP224